»·PEaware :: PAA576 KMFR-KSEA

PAA576 :: KMFR-KSEA

FLIGHT INFORMATION

Flight Status: Arrived
Operator:
PanAm
More flights by this operator :: More flights under this callsign
Pilot: Anonymous 8274 (8274)
Aircraft: BOEING 727-200
(B722)
More flights by this aircraft type
Origin: KMFR Rogue Valley Intl-Medford
United States
Destination: KSEA Seattle-Tacoma Intl
United States
More flights between these airports :: More routes between these airports
Route: BRUTE7 MOURN V23 EUG J126 UBG OLM2
File this flight plan on PilotEdge
Remarks:
Altitude:
(Current/Filed)
28,000ft
Speed:
(Current/Filed)
470kts
Departed: 14-Sep-18 09:25 PM
Arrived: 14-Sep-18 10:33 PM
Distance/Time
Traveled:
305nm/1:08
Distance/Time
To Go:
Arrived

Flight Plot

Page will automatically refresh every two minutes.

Flight plan parsing failed; only flown route is shown


Map Options




Map Legend


Flown Route
Filed Route
Departure Airport
Arrival Airport
Navaid (VOR, NDB)
Fix

Horizontal Profiles

Position Reports

Time Latitude Longitude Heading Altitude Ground
Speed
14-Sep-18 20:54 42.369412 -122.873647 247 1326ft 0kts
14-Sep-18 20:55 42.369412 -122.873647 247 1326ft 0kts
14-Sep-18 20:56 42.369412 -122.873647 247 1326ft 0kts
14-Sep-18 20:57 42.369412 -122.873647 247 1326ft 0kts
14-Sep-18 20:58 42.369412 -122.873647 247 1326ft 0kts
14-Sep-18 20:59 42.369412 -122.873647 247 1326ft 0kts
14-Sep-18 21:00 42.369412 -122.873647 247 1326ft 0kts
14-Sep-18 21:01 42.369412 -122.873647 247 1326ft 0kts
14-Sep-18 21:02 42.369412 -122.873647 247 1326ft 0kts
14-Sep-18 21:03 42.369412 -122.873647 247 1326ft 0kts
14-Sep-18 21:04 42.369412 -122.873647 247 1326ft 0kts
14-Sep-18 21:05 42.369412 -122.873647 247 1326ft 0kts
14-Sep-18 21:06 42.369412 -122.873647 247 1326ft 0kts
14-Sep-18 21:07 42.369412 -122.873647 247 1326ft 0kts
14-Sep-18 21:08 42.369412 -122.873647 247 1326ft 0kts
14-Sep-18 21:09 42.369472 -122.873450 247 1326ft 2kts
14-Sep-18 21:10 42.369432 -122.872737 334 1326ft 2kts
14-Sep-18 21:11 42.369148 -122.872760 24 1326ft 0kts
14-Sep-18 21:12 42.369148 -122.872760 24 1326ft 0kts
14-Sep-18 21:13 42.369148 -122.872760 24 1326ft 0kts
14-Sep-18 21:14 42.369148 -122.872760 24 1326ft 0kts
14-Sep-18 21:15 42.369148 -122.872760 24 1326ft 0kts
14-Sep-18 21:16 42.369148 -122.872760 24 1326ft 0kts
14-Sep-18 21:17 42.369203 -122.872726 24 1326ft 3kts
14-Sep-18 21:18 42.373061 -122.873898 338 1326ft 19kts
14-Sep-18 21:19 42.378484 -122.876715 338 1326ft 26kts
14-Sep-18 21:20 42.385265 -122.880311 338 1326ft 13kts
14-Sep-18 21:21 42.385665 -122.880320 38 1326ft 0kts
14-Sep-18 21:22 42.385665 -122.880320 38 1326ft 0kts
14-Sep-18 21:23 42.385665 -122.880320 38 1326ft 0kts
14-Sep-18 21:24 42.385665 -122.880320 38 1326ft 0kts
14-Sep-18 21:25 42.385665 -122.880320 38 1326ft 0kts
14-Sep-18 21:26 42.385706 -122.878888 160 1326ft 1kts
14-Sep-18 21:27 42.362044 -122.866591 158 1814ft 162kts
14-Sep-18 21:28 42.332708 -122.901104 301 3648ft 205kts
14-Sep-18 21:29 42.390540 -122.920600 357 5357ft 275kts
14-Sep-18 21:30 42.466262 -122.898696 49 8505ft 309kts
14-Sep-18 21:31 42.466778 -122.782511 104 11018ft 343kts
14-Sep-18 21:32 42.442154 -122.661626 112 11002ft 319kts
14-Sep-18 21:33 42.438798 -122.549148 53 12742ft 325kts
14-Sep-18 21:34 42.525556 -122.532265 345 14142ft 356kts
14-Sep-18 21:35 42.609551 -122.600632 320 16599ft 356kts
14-Sep-18 21:36 42.674647 -122.698895 301 18848ft 351kts
14-Sep-18 21:37 42.709041 -122.822315 280 20575ft 358kts
14-Sep-18 21:38 42.713540 -122.958901 276 21958ft 372kts
14-Sep-18 21:39 42.779791 -123.049307 355 23170ft 375kts
14-Sep-18 21:40 42.884467 -123.037332 4 24405ft 385kts
14-Sep-18 21:41 42.991944 -123.022995 4 25438ft 397kts
14-Sep-18 21:42 43.100374 -123.028919 351 26441ft 401kts
14-Sep-18 21:43 43.208632 -123.048732 351 27417ft 408kts
14-Sep-18 21:44 43.321746 -123.073425 349 28009ft 423kts
14-Sep-18 21:45 43.440592 -123.100668 349 28010ft 450kts
14-Sep-18 21:46 43.566104 -123.129494 349 28008ft 473kts
14-Sep-18 21:47 43.696130 -123.170158 343 28002ft 487kts
14-Sep-18 21:48 43.827152 -123.210324 351 28002ft 484kts
14-Sep-18 21:49 43.960210 -123.227242 353 28001ft 482kts
14-Sep-18 21:50 44.093174 -123.233154 359 28001ft 481kts
14-Sep-18 21:51 44.213617 -123.215877 21 28010ft 483kts
14-Sep-18 21:52 44.337452 -123.148859 12 28010ft 478kts
14-Sep-18 21:53 44.465328 -123.120049 6 28004ft 477kts
14-Sep-18 21:54 44.594134 -123.082132 11 28003ft 477kts
14-Sep-18 21:55 44.715897 -123.041462 11 28003ft 478kts
14-Sep-18 21:56 44.833054 -123.002178 11 28003ft 479kts
14-Sep-18 21:57 44.961105 -122.959087 11 28003ft 480kts
14-Sep-18 21:58 45.088888 -122.923257 354 27995ft 475kts
14-Sep-18 21:59 45.201733 -122.945579 350 28004ft 474kts
14-Sep-18 22:00 45.326469 -122.970848 350 28004ft 475kts
14-Sep-18 22:01 45.457129 -122.981726 359 28004ft 476kts
14-Sep-18 22:02 45.585577 -122.971862 3 28003ft 477kts
14-Sep-18 22:03 45.713915 -122.954747 3 28004ft 477kts
14-Sep-18 22:04 45.844958 -122.951934 359 28018ft 474kts
14-Sep-18 22:05 45.976505 -122.955525 359 28028ft 473kts
14-Sep-18 22:06 46.100097 -122.954595 1 28027ft 472kts
14-Sep-18 22:07 46.175770 -122.952937 1 28032ft 472kts
14-Sep-18 22:08 46.285796 -122.950819 1 28032ft 472kts
14-Sep-18 22:09 46.413183 -122.943608 6 28034ft 469kts
14-Sep-18 22:10 46.528239 -122.926848 6 26913ft 401kts
14-Sep-18 22:11 46.633003 -122.915193 3 23368ft 382kts
14-Sep-18 22:12 46.734433 -122.907243 3 18236ft 358kts
14-Sep-18 22:13 46.829140 -122.908824 358 17018ft 346kts
14-Sep-18 22:14 46.922310 -122.908681 1 17008ft 336kts
14-Sep-18 22:15 47.010651 -122.892636 27 17012ft 324kts
14-Sep-18 22:16 47.073538 -122.803079 50 15819ft 317kts
14-Sep-18 22:17 47.120333 -122.716936 52 13883ft 302kts
14-Sep-18 22:18 47.169309 -122.642926 40 13040ft 297kts
14-Sep-18 22:19 47.231414 -122.564085 40 13040ft 300kts
14-Sep-18 22:20 47.294555 -122.483898 39 13039ft 303kts
14-Sep-18 22:21 47.371232 -122.474753 350 12992ft 289kts
14-Sep-18 22:22 47.451836 -122.493869 350 11310ft 301kts
14-Sep-18 22:23 47.528674 -122.501405 359 8348ft 287kts
14-Sep-18 22:24 47.604994 -122.503274 358 4585ft 271kts
14-Sep-18 22:25 47.680695 -122.505456 359 4045ft 276kts
14-Sep-18 22:26 47.749721 -122.485774 53 4046ft 255kts
14-Sep-18 22:27 47.757538 -122.388398 87 4027ft 238kts
14-Sep-18 22:28 47.725409 -122.316994 139 3995ft 213kts
14-Sep-18 22:29 47.678056 -122.308098 180 3998ft 161kts
14-Sep-18 22:30 47.633138 -122.309714 180 3800ft 165kts
14-Sep-18 22:31 47.588081 -122.311191 177 2911ft 162kts
14-Sep-18 22:32 47.545399 -122.310472 179 1904ft 147kts
14-Sep-18 22:33 47.505184 -122.310723 179 1208ft 145kts
14-Sep-18 22:34 47.465385 -122.311013 178 454ft 144kts
14-Sep-18 22:35 47.440793 -122.310337 151 338ft 24kts
14-Sep-18 22:36 47.439883 -122.309548 148 338ft 0kts
14-Sep-18 22:37 47.439883 -122.309548 148 338ft 0kts
14-Sep-18 22:38 47.439883 -122.309548 148 338ft 0kts
14-Sep-18 22:39 47.439883 -122.309548 148 338ft 0kts
14-Sep-18 22:40 47.457893 -122.311053 179 348ft 142kts
14-Sep-18 22:41 47.464742 -122.311015 178 442ft 144kts
14-Sep-18 22:42 47.445960 -122.311160 181 338ft 78kts
14-Sep-18 22:43 47.439883 -122.309548 148 338ft 0kts
14-Sep-18 22:44 47.439883 -122.309548 148 338ft 0kts
14-Sep-18 22:45 47.439883 -122.309548 148 338ft 0kts
14-Sep-18 22:46 47.463222 -122.311006 178 417ft 144kts
14-Sep-18 22:47 47.474695 -122.310850 178 635ft 145kts
14-Sep-18 22:48 47.442575 -122.311194 176 338ft 45kts
14-Sep-18 22:49 47.439883 -122.309548 148 338ft 0kts

Navigation Log

Ident Type
Flight plan parsing failed, navigation log unavailable